createdAt,value
2019-05-22T00:00:30.153Z,13.90
2019-05-22T00:03:01.035Z,13.90
2019-05-22T00:05:35.457Z,14.00
2019-05-22T00:08:05.171Z,13.90
2019-05-22T00:10:34.674Z,13.90
2019-05-22T00:13:04.462Z,13.80
2019-05-22T00:15:33.257Z,13.90
2019-05-22T00:18:02.818Z,13.90
2019-05-22T00:20:31.472Z,13.90
2019-05-22T00:23:04.155Z,13.90
2019-05-22T00:25:33.427Z,14.00
2019-05-22T00:28:03.173Z,14.00
2019-05-22T00:30:33.434Z,14.00
2019-05-22T00:33:02.714Z,14.00
2019-05-22T00:35:31.409Z,13.90
2019-05-22T00:38:01.345Z,13.90
2019-05-22T00:40:34.728Z,13.80
2019-05-22T00:43:10.838Z,13.80
2019-05-22T00:45:33.632Z,13.80
2019-05-22T00:48:02.994Z,13.70
2019-05-22T00:50:40.615Z,13.70
2019-05-22T00:53:10.648Z,13.70
2019-05-22T00:55:43.429Z,13.60
2019-05-22T00:58:26.549Z,13.50
2019-05-22T01:00:57.884Z,13.50
2019-05-22T01:03:26.570Z,13.50
2019-05-22T01:05:57.768Z,13.40
2019-05-22T01:08:27.884Z,13.50
2019-05-22T01:10:57.660Z,13.40
2019-05-22T01:13:30.641Z,13.40
2019-05-22T01:15:59.460Z,13.50
2019-05-22T01:18:28.503Z,13.40
2019-05-22T01:21:18.169Z,13.30
2019-05-22T01:23:48.285Z,13.30
2019-05-22T01:26:19.115Z,13.30
2019-05-22T01:28:48.402Z,13.30
2019-05-22T01:31:36.116Z,13.30
2019-05-22T01:34:13.375Z,13.30
2019-05-22T01:36:46.757Z,13.30
2019-05-22T01:39:25.587Z,13.20
2019-05-22T01:41:57.109Z,13.20
2019-05-22T01:44:27.233Z,13.30
2019-05-22T01:46:56.481Z,13.30
2019-05-22T01:49:25.582Z,13.30
2019-05-22T01:51:55.903Z,13.20
2019-05-22T01:54:25.737Z,13.20
2019-05-22T01:56:56.443Z,13.30
2019-05-22T01:59:26.483Z,13.30
2019-05-22T02:01:57.269Z,13.30
2019-05-22T02:04:26.822Z,13.30
2019-05-22T02:06:57.064Z,13.30
2019-05-22T02:09:35.241Z,13.30
2019-05-22T02:12:08.382Z,13.40
2019-05-22T02:14:41.544Z,13.30
2019-05-22T02:17:11.991Z,13.30
2019-05-22T02:19:41.057Z,13.20
2019-05-22T02:22:11.193Z,13.20
2019-05-22T02:24:40.275Z,13.30
2019-05-22T02:27:09.997Z,13.30
2019-05-22T02:29:40.450Z,13.40
2019-05-22T02:32:11.584Z,13.50
2019-05-22T02:34:40.887Z,13.50
2019-05-22T02:37:10.639Z,13.60
2019-05-22T02:39:41.057Z,13.60
2019-05-22T02:42:15.298Z,13.50
2019-05-22T02:44:45.594Z,13.60
2019-05-22T02:47:20.170Z,13.60
2019-05-22T02:49:45.911Z,13.60
2019-05-22T02:52:16.520Z,13.70
2019-05-22T02:54:45.210Z,13.70
2019-05-22T02:57:13.617Z,13.70
2019-05-22T02:59:42.448Z,13.70
2019-05-22T03:02:13.091Z,13.70
2019-05-22T03:05:01.409Z,13.70
2019-05-22T03:07:31.347Z,13.60
2019-05-22T03:10:01.801Z,13.60
2019-05-22T03:12:32.387Z,13.60
2019-05-22T03:15:02.066Z,13.50
2019-05-22T03:17:31.327Z,13.50
2019-05-22T03:20:06.448Z,13.50
2019-05-22T03:22:44.415Z,13.50
2019-05-22T03:25:14.798Z,13.50
2019-05-22T03:27:50.140Z,13.40
2019-05-22T03:30:24.461Z,13.40
2019-05-22T03:32:55.613Z,13.50
2019-05-22T03:35:27.606Z,13.40
2019-05-22T03:37:58.927Z,13.50
2019-05-22T03:40:29.776Z,13.50
2019-05-22T03:43:01.881Z,13.50
2019-05-22T03:45:31.336Z,13.50
2019-05-22T03:48:01.477Z,13.60
2019-05-22T03:50:30.215Z,13.70
2019-05-22T03:53:01.697Z,13.70
2019-05-22T03:55:30.448Z,13.70
2019-05-22T03:58:00.056Z,13.70
2019-05-22T04:00:29.702Z,13.80
2019-05-22T04:02:58.200Z,13.80
2019-05-22T04:05:27.703Z,13.80
2019-05-22T04:07:58.198Z,13.70
2019-05-22T04:10:28.917Z,13.70
2019-05-22T04:12:57.618Z,13.70
2019-05-22T04:15:26.565Z,13.70
2019-05-22T04:17:56.694Z,13.70
2019-05-22T04:20:26.011Z,13.70
2019-05-22T04:22:58.582Z,13.60
2019-05-22T04:25:27.588Z,13.60
2019-05-22T04:27:56.829Z,13.50
2019-05-22T04:30:25.867Z,13.50
2019-05-22T04:32:55.243Z,13.40
2019-05-22T04:35:24.179Z,13.50
2019-05-22T04:37:52.686Z,13.30
2019-05-22T04:40:27.170Z,13.30
2019-05-22T04:42:58.615Z,13.30
2019-05-22T04:45:28.235Z,13.30
2019-05-22T04:48:03.733Z,13.40
2019-05-22T04:50:33.077Z,13.30
2019-05-22T04:53:02.735Z,13.30
2019-05-22T04:55:32.776Z,13.40
2019-05-22T04:58:07.158Z,13.40
2019-05-22T05:00:36.290Z,13.40
2019-05-22T05:03:05.386Z,13.50
2019-05-22T05:05:41.857Z,13.50
2019-05-22T05:08:11.854Z,13.60
2019-05-22T05:10:41.802Z,13.60
2019-05-22T05:13:10.361Z,13.60
2019-05-22T05:15:38.935Z,13.70
2019-05-22T05:18:07.575Z,13.70
2019-05-22T05:20:36.294Z,13.80
2019-05-22T05:23:04.848Z,13.80
2019-05-22T05:25:33.954Z,13.80
2019-05-22T05:28:04.001Z,13.80
2019-05-22T05:30:32.408Z,13.90
2019-05-22T05:33:02.304Z,13.90
2019-05-22T05:35:32.507Z,13.90
2019-05-22T05:38:03.540Z,14.00
2019-05-22T05:40:40.147Z,14.10
2019-05-22T05:43:10.534Z,14.10
2019-05-22T05:45:41.686Z,14.20
2019-05-22T05:48:11.801Z,14.30
2019-05-22T05:50:43.276Z,14.30
2019-05-22T05:53:13.463Z,14.40
2019-05-22T05:56:02.093Z,14.50
2019-05-22T05:58:32.726Z,14.50
2019-05-22T06:01:15.051Z,14.60
2019-05-22T06:03:45.153Z,14.60
2019-05-22T06:06:25.642Z,14.60
2019-05-22T06:08:54.898Z,14.60
2019-05-22T06:11:32.636Z,14.70
2019-05-22T06:14:02.977Z,14.70
2019-05-22T06:16:50.476Z,14.70
2019-05-22T06:19:20.189Z,14.70
2019-05-22T06:21:50.919Z,14.70
2019-05-22T06:24:36.355Z,14.60
2019-05-22T06:27:14.045Z,14.60
2019-05-22T06:29:56.023Z,14.60
2019-05-22T06:32:57.472Z,14.50
2019-05-22T06:35:30.608Z,14.40
2019-05-22T06:38:02.087Z,14.50
2019-05-22T06:40:30.578Z,14.60
2019-05-22T06:43:24.845Z,14.50
2019-05-22T06:45:54.980Z,14.50
2019-05-22T06:48:23.648Z,14.50
2019-05-22T06:50:52.551Z,14.50
2019-05-22T06:53:21.007Z,14.60
2019-05-22T06:55:50.177Z,14.70
2019-05-22T06:58:19.545Z,14.70
2019-05-22T07:00:48.232Z,14.80
2019-05-22T07:03:17.157Z,14.70
2019-05-22T07:05:46.300Z,14.70
2019-05-22T07:08:15.642Z,14.70
2019-05-22T07:10:44.742Z,14.70
2019-05-22T07:13:14.108Z,14.60
2019-05-22T07:15:44.066Z,14.50
2019-05-22T07:18:15.107Z,14.50
2019-05-22T07:20:44.613Z,14.50
2019-05-22T07:23:14.969Z,14.60
2019-05-22T07:25:45.780Z,14.70
2019-05-22T07:28:17.015Z,14.80
2019-05-22T07:30:46.840Z,14.70
2019-05-22T07:33:15.970Z,14.70
2019-05-22T07:36:07.087Z,14.80
2019-05-22T07:38:17.098Z,14.70
2019-05-22T07:40:49.906Z,14.70
2019-05-22T07:43:15.891Z,14.70
2019-05-22T07:45:44.462Z,14.70
2019-05-22T07:48:13.855Z,14.80
2019-05-22T07:50:48.496Z,15.00
2019-05-22T07:53:15.719Z,15.00
2019-05-22T07:55:44.463Z,15.10
2019-05-22T07:58:17.463Z,15.20
2019-05-22T08:00:50.249Z,15.30
2019-05-22T08:03:20.116Z,15.40
2019-05-22T08:05:51.609Z,15.70
2019-05-22T08:08:21.463Z,15.80
2019-05-22T08:10:50.976Z,15.80
2019-05-22T08:13:19.847Z,15.90
2019-05-22T08:15:48.358Z,16.30
2019-05-22T08:18:17.497Z,16.50
2019-05-22T08:20:45.904Z,16.80
2019-05-22T08:23:15.331Z,17.10
2019-05-22T08:25:43.871Z,17.20
2019-05-22T08:28:13.610Z,17.00
2019-05-22T08:30:42.201Z,17.10
2019-05-22T08:33:14.064Z,17.20
2019-05-22T08:35:42.856Z,17.30
2019-05-22T08:38:12.305Z,17.40
2019-05-22T08:40:40.935Z,17.00
2019-05-22T08:43:10.157Z,16.90
2019-05-22T08:45:38.756Z,16.70
2019-05-22T08:48:07.793Z,16.60
2019-05-22T08:50:37.539Z,16.60
2019-05-22T08:53:07.015Z,16.80
2019-05-22T08:55:36.141Z,17.20
2019-05-22T08:58:05.771Z,17.20
2019-05-22T09:00:34.715Z,17.40
2019-05-22T09:03:03.213Z,17.40
2019-05-22T09:05:32.649Z,17.40
2019-05-22T09:08:01.332Z,17.20
2019-05-22T09:10:30.262Z,17.20
2019-05-22T09:12:58.699Z,17.20
2019-05-22T09:15:28.518Z,17.20
2019-05-22T09:17:56.990Z,17.20
2019-05-22T09:20:25.920Z,17.20
2019-05-22T09:22:54.629Z,17.30
2019-05-22T09:25:23.199Z,17.10
2019-05-22T09:27:51.972Z,17.30
2019-05-22T09:30:20.818Z,17.30
2019-05-22T09:32:49.372Z,17.50
2019-05-22T09:35:18.670Z,17.30
2019-05-22T09:37:47.080Z,17.30
2019-05-22T09:40:16.024Z,17.10
2019-05-22T09:42:44.488Z,17.10
2019-05-22T09:45:14.713Z,17.30
2019-05-22T09:47:43.117Z,17.40
2019-05-22T09:50:12.456Z,17.40
2019-05-22T09:52:56.198Z,17.30
2019-05-22T09:55:14.145Z,17.20
2019-05-22T09:57:42.627Z,17.10
2019-05-22T10:00:13.369Z,16.90
2019-05-22T10:02:41.991Z,16.80
2019-05-22T10:05:12.914Z,16.70
2019-05-22T10:07:58.045Z,16.60
2019-05-22T10:10:12.127Z,16.60
2019-05-22T10:12:40.689Z,16.50
2019-05-22T10:15:11.300Z,16.60
2019-05-22T10:17:42.783Z,16.70
2019-05-22T10:20:11.710Z,16.60
2019-05-22T10:22:40.246Z,16.70
2019-05-22T10:25:15.622Z,16.70
2019-05-22T10:27:39.959Z,16.60
2019-05-22T10:30:13.847Z,16.60
2019-05-22T10:32:42.317Z,16.80
2019-05-22T10:35:12.272Z,16.90
2019-05-22T10:37:41.713Z,16.80
2019-05-22T10:40:13.104Z,16.90
2019-05-22T10:42:44.629Z,16.80
2019-05-22T10:45:12.343Z,16.90
2019-05-22T10:47:41.163Z,16.90
2019-05-22T10:50:09.706Z,16.90
2019-05-22T10:52:38.279Z,17.00
2019-05-22T10:55:08.038Z,17.20
2019-05-22T10:57:40.462Z,17.40
2019-05-22T11:00:12.838Z,17.40
2019-05-22T11:02:41.782Z,17.30
2019-05-22T11:05:11.016Z,17.50
2019-05-22T11:07:40.367Z,17.60
2019-05-22T11:10:09.794Z,17.60
2019-05-22T11:12:38.233Z,17.80
2019-05-22T11:15:08.593Z,17.80
2019-05-22T11:17:38.146Z,18.10
2019-05-22T11:20:07.753Z,18.50
2019-05-22T11:22:37.135Z,18.60
2019-05-22T11:25:09.839Z,18.70
2019-05-22T11:27:39.164Z,18.90
2019-05-22T11:30:10.876Z,19.00
2019-05-22T11:32:39.913Z,19.10
2019-05-22T11:35:10.137Z,19.30
2019-05-22T11:37:39.272Z,19.30
2019-05-22T11:40:09.881Z,19.20
2019-05-22T11:42:38.462Z,19.00
2019-05-22T11:45:11.566Z,18.70
2019-05-22T11:47:41.023Z,18.40
2019-05-22T11:50:13.988Z,18.20
2019-05-22T11:52:42.484Z,18.10
2019-05-22T11:55:12.749Z,18.00
2019-05-22T11:57:43.166Z,17.90
2019-05-22T12:00:15.237Z,17.90
2019-05-22T12:02:45.155Z,17.70
2019-05-22T12:05:15.290Z,18.00
2019-05-22T12:07:44.574Z,18.40
2019-05-22T12:10:14.698Z,18.60
2019-05-22T12:12:44.671Z,18.90
2019-05-22T12:15:13.850Z,19.00
2019-05-22T12:17:42.278Z,19.10
2019-05-22T12:20:12.671Z,19.10
2019-05-22T12:22:42.443Z,19.10
2019-05-22T12:25:12.821Z,19.30
2019-05-22T12:27:41.492Z,19.10
2019-05-22T12:30:11.754Z,18.80
2019-05-22T12:32:40.641Z,19.00
2019-05-22T12:35:11.639Z,18.80
2019-05-22T12:37:41.460Z,18.30
2019-05-22T12:40:11.905Z,18.40
2019-05-22T12:42:40.457Z,18.80
2019-05-22T12:45:09.903Z,19.20
2019-05-22T12:47:38.485Z,19.40
2019-05-22T12:50:12.350Z,19.40
2019-05-22T12:52:42.336Z,19.40
2019-05-22T12:55:11.017Z,19.70
2019-05-22T12:57:41.088Z,20.10
2019-05-22T13:00:13.163Z,20.20
2019-05-22T13:02:43.257Z,19.80
2019-05-22T13:05:14.488Z,19.80
2019-05-22T13:07:42.153Z,19.80
2019-05-22T13:10:10.793Z,19.80
2019-05-22T13:12:39.728Z,19.80
2019-05-22T13:15:10.589Z,19.70
2019-05-22T13:17:40.775Z,19.70
2019-05-22T13:20:12.064Z,19.50
2019-05-22T13:22:43.553Z,19.70
2019-05-22T13:25:13.817Z,19.60
2019-05-22T13:27:43.533Z,19.50
2019-05-22T13:30:14.841Z,19.60
2019-05-22T13:32:44.326Z,19.50
2019-05-22T13:35:15.154Z,19.90
2019-05-22T13:37:44.313Z,20.20
2019-05-22T13:40:27.069Z,20.20
2019-05-22T13:42:44.509Z,20.20
2019-05-22T13:45:28.510Z,20.20
2019-05-22T13:47:45.672Z,20.20
2019-05-22T13:50:17.017Z,20.20
2019-05-22T13:52:46.072Z,20.30
2019-05-22T13:55:15.675Z,20.40
2019-05-22T13:57:44.528Z,20.40
2019-05-22T14:00:16.786Z,20.50
2019-05-22T14:02:45.202Z,20.40
2019-05-22T14:05:15.266Z,20.30
2019-05-22T14:07:43.953Z,20.30
2019-05-22T14:10:12.699Z,20.40
2019-05-22T14:12:41.547Z,20.30
2019-05-22T14:15:11.401Z,20.00
2019-05-22T14:17:39.791Z,20.30
2019-05-22T14:20:08.854Z,20.20
2019-05-22T14:22:37.533Z,20.10
2019-05-22T14:25:10.006Z,20.30
2019-05-22T14:27:41.567Z,20.40
2019-05-22T14:30:09.451Z,20.50
2019-05-22T14:32:38.207Z,20.60
2019-05-22T14:35:06.952Z,20.60
2019-05-22T14:37:35.683Z,20.30
2019-05-22T14:40:07.312Z,20.30
2019-05-22T14:42:35.837Z,20.20
2019-05-22T14:45:05.898Z,20.30
2019-05-22T14:47:34.541Z,20.60
2019-05-22T14:50:03.708Z,20.80
2019-05-22T14:52:32.854Z,20.70
2019-05-22T14:55:01.512Z,20.70
2019-05-22T14:57:30.074Z,20.80
2019-05-22T14:59:58.631Z,20.70
2019-05-22T15:02:27.761Z,20.50
2019-05-22T15:04:57.240Z,20.60
2019-05-22T15:07:26.079Z,20.80
2019-05-22T15:09:54.639Z,21.10
2019-05-22T15:12:23.040Z,20.90
2019-05-22T15:14:51.462Z,20.70
2019-05-22T15:17:31.909Z,20.70
2019-05-22T15:19:50.737Z,20.20
2019-05-22T15:22:19.363Z,20.10
2019-05-22T15:24:48.102Z,20.20
2019-05-22T15:27:17.378Z,20.30
2019-05-22T15:29:45.950Z,20.50
2019-05-22T15:32:15.786Z,20.70
2019-05-22T15:34:44.510Z,20.60
2019-05-22T15:37:13.447Z,20.50
2019-05-22T15:39:43.023Z,20.50
2019-05-22T15:42:14.516Z,20.60
2019-05-22T15:44:43.163Z,20.60
2019-05-22T15:47:11.631Z,20.70
2019-05-22T15:49:43.316Z,20.80
2019-05-22T15:52:15.126Z,20.80
2019-05-22T15:54:45.584Z,20.60
2019-05-22T15:57:15.603Z,20.60
2019-05-22T15:59:44.936Z,20.40
2019-05-22T16:02:13.707Z,20.20
2019-05-22T16:04:43.218Z,20.10
2019-05-22T16:07:12.018Z,20.30
2019-05-22T16:09:43.164Z,20.90
2019-05-22T16:12:13.020Z,21.00
2019-05-22T16:14:42.235Z,20.90
2019-05-22T16:17:10.895Z,21.00
2019-05-22T16:19:40.005Z,21.10
2019-05-22T16:22:10.687Z,21.20
2019-05-22T16:24:40.385Z,21.40
2019-05-22T16:27:11.772Z,21.80
2019-05-22T16:29:40.338Z,21.70
2019-05-22T16:32:10.077Z,21.90
2019-05-22T16:34:41.350Z,22.10
2019-05-22T16:37:10.326Z,22.10
2019-05-22T16:39:39.867Z,22.00
2019-05-22T16:42:09.577Z,22.30
2019-05-22T16:44:38.679Z,23.10
2019-05-22T16:47:08.816Z,23.70
2019-05-22T16:49:38.030Z,24.10
2019-05-22T16:52:09.024Z,24.20
2019-05-22T16:54:39.598Z,24.00
2019-05-22T16:57:09.544Z,23.90
2019-05-22T16:59:40.310Z,23.80
2019-05-22T17:02:11.933Z,23.10
2019-05-22T17:04:40.811Z,23.30
2019-05-22T17:07:09.320Z,23.40
2019-05-22T17:09:39.417Z,23.20
2019-05-22T17:12:09.580Z,22.60
2019-05-22T17:14:37.988Z,22.30
2019-05-22T17:17:07.293Z,22.50
2019-05-22T17:19:36.022Z,22.30
2019-05-22T17:22:07.733Z,22.30
2019-05-22T17:24:37.383Z,22.10
2019-05-22T17:27:06.957Z,22.20
2019-05-22T17:29:35.692Z,22.50
2019-05-22T17:32:05.007Z,22.50
2019-05-22T17:34:35.038Z,22.60
2019-05-22T17:37:11.047Z,22.40
2019-05-22T17:39:45.836Z,22.30
2019-05-22T17:42:17.402Z,22.40
2019-05-22T17:44:47.546Z,22.00
2019-05-22T17:47:17.063Z,21.80
2019-05-22T17:49:45.606Z,22.10
2019-05-22T17:52:14.635Z,22.30
2019-05-22T17:54:43.495Z,22.60
2019-05-22T17:57:13.610Z,22.90
2019-05-22T17:59:42.073Z,23.20
2019-05-22T18:02:12.202Z,23.20
2019-05-22T18:04:40.595Z,23.00
2019-05-22T18:07:09.359Z,22.70
2019-05-22T18:09:37.975Z,22.40
2019-05-22T18:12:07.365Z,21.90
2019-05-22T18:14:36.586Z,21.20
2019-05-22T18:17:05.637Z,20.70
2019-05-22T18:19:34.475Z,20.30
2019-05-22T18:22:04.515Z,19.80
2019-05-22T18:24:33.204Z,19.40
2019-05-22T18:27:01.780Z,19.10
2019-05-22T18:29:30.308Z,18.80
2019-05-22T18:31:59.239Z,18.40
2019-05-22T18:34:27.722Z,18.00
2019-05-22T18:36:56.109Z,17.60
2019-05-22T18:39:25.582Z,17.30
2019-05-22T18:41:53.996Z,17.20
2019-05-22T18:44:22.475Z,17.00
2019-05-22T18:46:51.142Z,16.80
2019-05-22T18:49:19.608Z,16.50
2019-05-22T18:51:48.085Z,16.30
2019-05-22T18:54:19.044Z,16.10
2019-05-22T18:56:46.916Z,15.80
2019-05-22T18:59:15.333Z,15.70
2019-05-22T19:01:44.070Z,15.50
2019-05-22T19:04:12.470Z,15.30
2019-05-22T19:06:41.344Z,15.10
2019-05-22T19:09:10.315Z,14.90
2019-05-22T19:11:39.256Z,14.70
2019-05-22T19:14:08.210Z,14.50
2019-05-22T19:16:36.682Z,14.40
2019-05-22T19:19:05.177Z,14.10
2019-05-22T19:21:33.878Z,13.90
2019-05-22T19:24:02.539Z,13.90
2019-05-22T19:26:31.590Z,13.80
2019-05-22T19:29:00.235Z,13.70
2019-05-22T19:31:28.641Z,13.50
2019-05-22T19:33:57.181Z,13.50
2019-05-22T19:36:25.959Z,13.40
2019-05-22T19:38:54.495Z,13.30
2019-05-22T19:41:24.503Z,13.30
2019-05-22T19:43:52.961Z,13.20
2019-05-22T19:46:21.432Z,13.10
2019-05-22T19:48:49.992Z,13.00
2019-05-22T19:51:19.294Z,13.00
2019-05-22T19:53:48.739Z,12.80
2019-05-22T19:56:17.606Z,12.80
2019-05-22T19:58:46.378Z,12.80
2019-05-22T20:01:15.385Z,12.70
2019-05-22T20:03:43.808Z,12.60
2019-05-22T20:06:12.475Z,12.50
2019-05-22T20:08:41.598Z,12.50
2019-05-22T20:11:10.264Z,12.50
2019-05-22T20:13:39.591Z,12.40
2019-05-22T20:16:09.074Z,12.40
2019-05-22T20:18:38.054Z,12.40
2019-05-22T20:21:06.599Z,12.30
2019-05-22T20:23:36.939Z,12.30
2019-05-22T20:26:05.648Z,12.20
2019-05-22T20:28:34.691Z,12.20
2019-05-22T20:31:03.367Z,12.20
2019-05-22T20:33:32.019Z,12.10
2019-05-22T20:36:01.337Z,12.20
2019-05-22T20:38:30.122Z,12.20
2019-05-22T20:40:58.659Z,12.10
2019-05-22T20:43:28.472Z,12.10
2019-05-22T20:45:58.014Z,12.10
2019-05-22T20:48:29.339Z,12.10
2019-05-22T20:50:59.646Z,11.90
2019-05-22T20:53:30.153Z,11.90
2019-05-22T20:55:59.695Z,11.70
2019-05-22T20:58:28.369Z,11.60
2019-05-22T21:00:57.274Z,11.50
2019-05-22T21:03:25.948Z,11.40
2019-05-22T21:05:54.439Z,11.30
2019-05-22T21:08:25.063Z,11.20
2019-05-22T21:10:54.278Z,11.10
2019-05-22T21:13:23.744Z,11.00
2019-05-22T21:15:53.858Z,10.90
2019-05-22T21:18:24.166Z,10.90
2019-05-22T21:20:55.108Z,10.80
2019-05-22T21:23:23.666Z,10.80
2019-05-22T21:25:52.101Z,10.70
2019-05-22T21:28:21.267Z,10.50
2019-05-22T21:30:51.827Z,10.40
2019-05-22T21:33:20.392Z,10.20
2019-05-22T21:35:49.283Z,10.10
2019-05-22T21:38:17.955Z,10.10
2019-05-22T21:40:47.620Z,10.00
2019-05-22T21:43:16.992Z,9.90
2019-05-22T21:45:46.383Z,9.80
2019-05-22T21:48:15.054Z,9.80
2019-05-22T21:50:44.197Z,9.80
2019-05-22T21:53:14.010Z,9.70
2019-05-22T21:55:45.601Z,9.70
2019-05-22T21:58:14.381Z,9.70
2019-05-22T22:00:47.752Z,9.70
2019-05-22T22:03:21.980Z,9.60
2019-05-22T22:05:50.469Z,9.60
2019-05-22T22:08:18.851Z,9.60
2019-05-22T22:10:47.837Z,9.40
2019-05-22T22:13:17.166Z,9.40
2019-05-22T22:15:46.078Z,9.30
2019-05-22T22:18:15.315Z,9.30
2019-05-22T22:20:44.312Z,9.30
2019-05-22T22:23:15.111Z,9.20
2019-05-22T22:25:43.971Z,9.20
2019-05-22T22:28:15.475Z,9.10
2019-05-22T22:30:46.938Z,9.10
2019-05-22T22:33:19.512Z,9.00
2019-05-22T22:35:49.136Z,9.10
2019-05-22T22:38:19.370Z,9.10
2019-05-22T22:40:49.141Z,9.00
2019-05-22T22:43:17.723Z,8.90
2019-05-22T22:45:50.604Z,8.90
2019-05-22T22:48:23.399Z,8.80
2019-05-22T22:50:52.887Z,8.70
2019-05-22T22:53:21.943Z,8.70
2019-05-22T22:55:51.638Z,8.60
2019-05-22T22:58:21.183Z,8.60
2019-05-22T23:00:53.259Z,8.60
2019-05-22T23:03:24.263Z,8.60
2019-05-22T23:05:53.781Z,8.60
2019-05-22T23:08:29.583Z,8.60
2019-05-22T23:10:58.187Z,8.60
2019-05-22T23:13:28.320Z,8.60
2019-05-22T23:15:57.937Z,8.50
2019-05-22T23:18:42.873Z,8.50
2019-05-22T23:21:11.842Z,8.40
2019-05-22T23:23:40.745Z,8.40
2019-05-22T23:26:11.409Z,8.40
2019-05-22T23:28:42.095Z,8.30
2019-05-22T23:31:11.682Z,8.30
2019-05-22T23:33:40.926Z,8.30
2019-05-22T23:36:11.830Z,8.20
2019-05-22T23:38:41.480Z,8.20
2019-05-22T23:41:10.212Z,8.20
2019-05-22T23:43:38.619Z,8.30
2019-05-22T23:46:08.545Z,8.20
2019-05-22T23:48:38.006Z,8.20
2019-05-22T23:51:08.102Z,8.30
2019-05-22T23:53:37.587Z,8.30
2019-05-22T23:56:06.737Z,8.30
2019-05-22T23:58:49.853Z,8.30
